sensor_id;sensor_type;location;lat;lon;timestamp;P1;durP1;ratioP1;P2;durP2;ratioP2
69410;SDS011;56604;48.652;9.194;2023-01-09T00:01:51;5.20;;;4.83;;
69410;SDS011;56604;48.652;9.194;2023-01-09T00:04:17;4.50;;;4.20;;
69410;SDS011;56604;48.652;9.194;2023-01-09T00:06:43;4.20;;;3.90;;
69410;SDS011;56604;48.652;9.194;2023-01-09T00:09:10;3.83;;;3.63;;
69410;SDS011;56604;48.652;9.194;2023-01-09T00:11:36;4.90;;;4.50;;
69410;SDS011;56604;48.652;9.194;2023-01-09T00:14:02;4.90;;;4.50;;
69410;SDS011;56604;48.652;9.194;2023-01-09T00:16:28;4.43;;;4.13;;
69410;SDS011;56604;48.652;9.194;2023-01-09T00:18:54;4.40;;;4.10;;
69410;SDS011;56604;48.652;9.194;2023-01-09T00:21:20;4.77;;;4.47;;
69410;SDS011;56604;48.652;9.194;2023-01-09T00:23:46;4.60;;;4.30;;
69410;SDS011;56604;48.652;9.194;2023-01-09T00:26:16;4.70;;;3.70;;
69410;SDS011;56604;48.652;9.194;2023-01-09T00:28:46;3.50;;;3.30;;
69410;SDS011;56604;48.652;9.194;2023-01-09T00:31:13;2.87;;;2.70;;
69410;SDS011;56604;48.652;9.194;2023-01-09T00:34:02;2.87;;;2.77;;
69410;SDS011;56604;48.652;9.194;2023-01-09T00:36:27;2.13;;;2.03;;
69410;SDS011;56604;48.652;9.194;2023-01-09T00:38:53;2.30;;;2.20;;
69410;SDS011;56604;48.652;9.194;2023-01-09T00:41:20;1.47;;;1.47;;
69410;SDS011;56604;48.652;9.194;2023-01-09T00:43:52;2.27;;;2.17;;
69410;SDS011;56604;48.652;9.194;2023-01-09T00:46:23;1.73;;;1.70;;
69410;SDS011;56604;48.652;9.194;2023-01-09T00:48:55;1.53;;;1.53;;
69410;SDS011;56604;48.652;9.194;2023-01-09T00:51:20;1.20;;;1.20;;
69410;SDS011;56604;48.652;9.194;2023-01-09T00:53:46;1.37;;;1.27;;
69410;SDS011;56604;48.652;9.194;2023-01-09T00:56:13;1.43;;;1.43;;
69410;SDS011;56604;48.652;9.194;2023-01-09T00:58:42;1.40;;;1.30;;
69410;SDS011;56604;48.652;9.194;2023-01-09T01:01:08;1.20;;;1.20;;
69410;SDS011;56604;48.652;9.194;2023-01-09T01:03:33;1.00;;;1.00;;
69410;SDS011;56604;48.652;9.194;2023-01-09T01:05:58;1.20;;;1.20;;
69410;SDS011;56604;48.652;9.194;2023-01-09T01:08:43;0.97;;;0.80;;
69410;SDS011;56604;48.652;9.194;2023-01-09T01:11:09;0.90;;;0.90;;
69410;SDS011;56604;48.652;9.194;2023-01-09T01:13:35;1.03;;;1.03;;
69410;SDS011;56604;48.652;9.194;2023-01-09T01:16:05;2.63;;;1.00;;
69410;SDS011;56604;48.652;9.194;2023-01-09T01:18:32;1.20;;;1.20;;
69410;SDS011;56604;48.652;9.194;2023-01-09T01:20:57;1.13;;;1.13;;
69410;SDS011;56604;48.652;9.194;2023-01-09T01:23:23;0.90;;;0.90;;
69410;SDS011;56604;48.652;9.194;2023-01-09T01:25:48;0.87;;;0.87;;
69410;SDS011;56604;48.652;9.194;2023-01-09T01:28:14;0.70;;;0.70;;
69410;SDS011;56604;48.652;9.194;2023-01-09T01:30:39;10.20;;;0.90;;
69410;SDS011;56604;48.652;9.194;2023-01-09T01:33:06;1.37;;;1.13;;
69410;SDS011;56604;48.652;9.194;2023-01-09T01:35:32;1.97;;;0.70;;
69410;SDS011;56604;48.652;9.194;2023-01-09T01:37:58;9.57;;;1.27;;
69410;SDS011;56604;48.652;9.194;2023-01-09T01:40:24;0.80;;;0.80;;
69410;SDS011;56604;48.652;9.194;2023-01-09T01:42:51;0.83;;;0.83;;
69410;SDS011;56604;48.652;9.194;2023-01-09T01:45:18;0.70;;;0.70;;
69410;SDS011;56604;48.652;9.194;2023-01-09T01:47:52;0.80;;;0.80;;
69410;SDS011;56604;48.652;9.194;2023-01-09T01:55:43;0.80;;;0.80;;
69410;SDS011;56604;48.652;9.194;2023-01-09T01:58:16;0.90;;;0.90;;
69410;SDS011;56604;48.652;9.194;2023-01-09T02:00:43;0.80;;;0.80;;
69410;SDS011;56604;48.652;9.194;2023-01-09T02:03:10;1.07;;;1.07;;
69410;SDS011;56604;48.652;9.194;2023-01-09T02:05:39;0.90;;;0.90;;
69410;SDS011;56604;48.652;9.194;2023-01-09T02:08:05;0.83;;;0.83;;
69410;SDS011;56604;48.652;9.194;2023-01-09T02:10:32;0.90;;;0.90;;
69410;SDS011;56604;48.652;9.194;2023-01-09T02:12:58;0.80;;;0.80;;
69410;SDS011;56604;48.652;9.194;2023-01-09T02:15:24;0.90;;;0.90;;
69410;SDS011;56604;48.652;9.194;2023-01-09T02:20:43;0.90;;;0.90;;
69410;SDS011;56604;48.652;9.194;2023-01-09T02:26:33;0.90;;;0.90;;
69410;SDS011;56604;48.652;9.194;2023-01-09T02:29:14;0.83;;;0.83;;
69410;SDS011;56604;48.652;9.194;2023-01-09T02:33:01;0.90;;;0.90;;
69410;SDS011;56604;48.652;9.194;2023-01-09T02:37:44;0.77;;;0.77;;
69410;SDS011;56604;48.652;9.194;2023-01-09T02:40:37;0.80;;;0.80;;
69410;SDS011;56604;48.652;9.194;2023-01-09T02:43:07;1.10;;;0.80;;
69410;SDS011;56604;48.652;9.194;2023-01-09T02:45:34;2.53;;;0.90;;
69410;SDS011;56604;48.652;9.194;2023-01-09T02:47:59;0.80;;;0.80;;
69410;SDS011;56604;48.652;9.194;2023-01-09T02:50:27;0.83;;;0.83;;
69410;SDS011;56604;48.652;9.194;2023-01-09T02:55:50;0.60;;;0.60;;
69410;SDS011;56604;48.652;9.194;2023-01-09T03:04:03;0.67;;;0.67;;
69410;SDS011;56604;48.652;9.194;2023-01-09T03:06:45;0.57;;;0.57;;
69410;SDS011;56604;48.652;9.194;2023-01-09T03:09:20;1.13;;;0.70;;
69410;SDS011;56604;48.652;9.194;2023-01-09T03:11:49;0.53;;;0.53;;
69410;SDS011;56604;48.652;9.194;2023-01-09T03:14:19;1.17;;;0.50;;
69410;SDS011;56604;48.652;9.194;2023-01-09T03:16:48;0.57;;;0.57;;
69410;SDS011;56604;48.652;9.194;2023-01-09T03:19:19;0.50;;;0.50;;
69410;SDS011;56604;48.652;9.194;2023-01-09T03:21:48;0.50;;;0.50;;
69410;SDS011;56604;48.652;9.194;2023-01-09T03:24:15;0.40;;;0.40;;
69410;SDS011;56604;48.652;9.194;2023-01-09T03:26:40;0.60;;;0.60;;
69410;SDS011;56604;48.652;9.194;2023-01-09T03:29:06;0.60;;;0.60;;
69410;SDS011;56604;48.652;9.194;2023-01-09T03:31:31;0.50;;;0.50;;
69410;SDS011;56604;48.652;9.194;2023-01-09T03:33:57;0.40;;;0.40;;
69410;SDS011;56604;48.652;9.194;2023-01-09T03:36:22;0.60;;;0.60;;
69410;SDS011;56604;48.652;9.194;2023-01-09T03:38:48;0.90;;;0.77;;
69410;SDS011;56604;48.652;9.194;2023-01-09T03:41:15;0.50;;;0.50;;
69410;SDS011;56604;48.652;9.194;2023-01-09T03:43:40;0.40;;;0.40;;
69410;SDS011;56604;48.652;9.194;2023-01-09T03:46:06;0.50;;;0.50;;
69410;SDS011;56604;48.652;9.194;2023-01-09T03:48:31;0.60;;;0.60;;
69410;SDS011;56604;48.652;9.194;2023-01-09T03:50:57;0.70;;;0.50;;
69410;SDS011;56604;48.652;9.194;2023-01-09T03:53:23;0.50;;;0.50;;
69410;SDS011;56604;48.652;9.194;2023-01-09T03:55:51;0.50;;;0.50;;
69410;SDS011;56604;48.652;9.194;2023-01-09T03:58:18;0.70;;;0.70;;
69410;SDS011;56604;48.652;9.194;2023-01-09T04:00:44;0.60;;;0.60;;
69410;SDS011;56604;48.652;9.194;2023-01-09T04:03:10;0.50;;;0.50;;
69410;SDS011;56604;48.652;9.194;2023-01-09T04:05:36;0.50;;;0.50;;
69410;SDS011;56604;48.652;9.194;2023-01-09T04:08:02;0.43;;;0.43;;
69410;SDS011;56604;48.652;9.194;2023-01-09T04:10:28;0.40;;;0.40;;
69410;SDS011;56604;48.652;9.194;2023-01-09T04:12:53;3.27;;;0.50;;
69410;SDS011;56604;48.652;9.194;2023-01-09T04:15:19;0.50;;;0.50;;
69410;SDS011;56604;48.652;9.194;2023-01-09T04:17:44;1.17;;;0.60;;
69410;SDS011;56604;48.652;9.194;2023-01-09T04:20:09;0.40;;;0.40;;
69410;SDS011;56604;48.652;9.194;2023-01-09T04:22:35;0.50;;;0.50;;
69410;SDS011;56604;48.652;9.194;2023-01-09T04:25:01;0.50;;;0.50;;
69410;SDS011;56604;48.652;9.194;2023-01-09T04:27:27;0.60;;;0.60;;
69410;SDS011;56604;48.652;9.194;2023-01-09T04:29:52;0.50;;;0.50;;
69410;SDS011;56604;48.652;9.194;2023-01-09T04:32:18;0.50;;;0.50;;
69410;SDS011;56604;48.652;9.194;2023-01-09T04:34:43;0.73;;;0.60;;
69410;SDS011;56604;48.652;9.194;2023-01-09T04:37:08;0.50;;;0.50;;
69410;SDS011;56604;48.652;9.194;2023-01-09T04:39:34;0.40;;;0.40;;
69410;SDS011;56604;48.652;9.194;2023-01-09T04:41:59;0.40;;;0.40;;
69410;SDS011;56604;48.652;9.194;2023-01-09T04:44:24;0.57;;;0.50;;
69410;SDS011;56604;48.652;9.194;2023-01-09T04:46:50;0.40;;;0.40;;
69410;SDS011;56604;48.652;9.194;2023-01-09T04:49:16;0.50;;;0.50;;
69410;SDS011;56604;48.652;9.194;2023-01-09T04:51:42;0.40;;;0.40;;
69410;SDS011;56604;48.652;9.194;2023-01-09T04:54:07;0.30;;;0.30;;
69410;SDS011;56604;48.652;9.194;2023-01-09T04:56:33;0.40;;;0.40;;
69410;SDS011;56604;48.652;9.194;2023-01-09T04:58:58;0.67;;;0.40;;
69410;SDS011;56604;48.652;9.194;2023-01-09T05:01:23;0.40;;;0.40;;
69410;SDS011;56604;48.652;9.194;2023-01-09T05:03:49;0.40;;;0.40;;
69410;SDS011;56604;48.652;9.194;2023-01-09T05:06:14;0.37;;;0.37;;
69410;SDS011;56604;48.652;9.194;2023-01-09T05:08:40;1.03;;;0.40;;
69410;SDS011;56604;48.652;9.194;2023-01-09T05:11:05;0.40;;;0.40;;
69410;SDS011;56604;48.652;9.194;2023-01-09T05:13:30;1.40;;;0.50;;
69410;SDS011;56604;48.652;9.194;2023-01-09T05:15:55;0.40;;;0.40;;
69410;SDS011;56604;48.652;9.194;2023-01-09T05:18:21;0.40;;;0.40;;
69410;SDS011;56604;48.652;9.194;2023-01-09T05:20:46;0.50;;;0.50;;
69410;SDS011;56604;48.652;9.194;2023-01-09T05:23:11;0.40;;;0.40;;
69410;SDS011;56604;48.652;9.194;2023-01-09T05:25:37;0.40;;;0.40;;
69410;SDS011;56604;48.652;9.194;2023-01-09T05:28:02;2.20;;;0.50;;
69410;SDS011;56604;48.652;9.194;2023-01-09T05:30:27;0.40;;;0.40;;
69410;SDS011;56604;48.652;9.194;2023-01-09T05:32:53;1.53;;;0.50;;
69410;SDS011;56604;48.652;9.194;2023-01-09T05:35:18;1.27;;;0.50;;
69410;SDS011;56604;48.652;9.194;2023-01-09T05:37:44;0.50;;;0.50;;
69410;SDS011;56604;48.652;9.194;2023-01-09T05:40:10;0.73;;;0.50;;
69410;SDS011;56604;48.652;9.194;2023-01-09T05:42:35;0.57;;;0.57;;
69410;SDS011;56604;48.652;9.194;2023-01-09T05:45:01;0.47;;;0.47;;
69410;SDS011;56604;48.652;9.194;2023-01-09T05:47:26;1.50;;;0.70;;
69410;SDS011;56604;48.652;9.194;2023-01-09T05:49:51;0.50;;;0.50;;
69410;SDS011;56604;48.652;9.194;2023-01-09T05:52:20;0.67;;;0.50;;
69410;SDS011;56604;48.652;9.194;2023-01-09T05:54:45;1.90;;;0.50;;
69410;SDS011;56604;48.652;9.194;2023-01-09T05:57:10;0.97;;;0.50;;
69410;SDS011;56604;48.652;9.194;2023-01-09T05:59:36;0.60;;;0.60;;
69410;SDS011;56604;48.652;9.194;2023-01-09T06:02:01;0.97;;;0.63;;
69410;SDS011;56604;48.652;9.194;2023-01-09T06:04:26;0.90;;;0.60;;
69410;SDS011;56604;48.652;9.194;2023-01-09T06:06:53;0.50;;;0.43;;
69410;SDS011;56604;48.652;9.194;2023-01-09T06:09:19;0.50;;;0.50;;
69410;SDS011;56604;48.652;9.194;2023-01-09T06:11:44;0.70;;;0.70;;
69410;SDS011;56604;48.652;9.194;2023-01-09T06:14:10;0.40;;;0.40;;
69410;SDS011;56604;48.652;9.194;2023-01-09T06:16:35;0.80;;;0.80;;
69410;SDS011;56604;48.652;9.194;2023-01-09T06:19:01;0.97;;;0.70;;
69410;SDS011;56604;48.652;9.194;2023-01-09T06:21:26;0.53;;;0.53;;
69410;SDS011;56604;48.652;9.194;2023-01-09T06:23:53;0.50;;;0.50;;
69410;SDS011;56604;48.652;9.194;2023-01-09T06:26:19;0.40;;;0.40;;
69410;SDS011;56604;48.652;9.194;2023-01-09T06:28:44;0.63;;;0.60;;
69410;SDS011;56604;48.652;9.194;2023-01-09T06:31:09;0.50;;;0.50;;
69410;SDS011;56604;48.652;9.194;2023-01-09T06:33:35;1.27;;;0.50;;
69410;SDS011;56604;48.652;9.194;2023-01-09T06:36:00;2.00;;;0.60;;
69410;SDS011;56604;48.652;9.194;2023-01-09T06:38:25;0.50;;;0.50;;
69410;SDS011;56604;48.652;9.194;2023-01-09T06:40:51;2.93;;;0.80;;
69410;SDS011;56604;48.652;9.194;2023-01-09T06:43:16;0.60;;;0.50;;
69410;SDS011;56604;48.652;9.194;2023-01-09T06:45:42;2.03;;;0.70;;
69410;SDS011;56604;48.652;9.194;2023-01-09T06:48:08;0.70;;;0.70;;
69410;SDS011;56604;48.652;9.194;2023-01-09T06:50:34;0.70;;;0.70;;
69410;SDS011;56604;48.652;9.194;2023-01-09T06:52:59;1.67;;;0.60;;
69410;SDS011;56604;48.652;9.194;2023-01-09T06:55:24;4.80;;;3.67;;
69410;SDS011;56604;48.652;9.194;2023-01-09T06:57:50;2.00;;;1.30;;
69410;SDS011;56604;48.652;9.194;2023-01-09T07:00:16;1.77;;;1.67;;
69410;SDS011;56604;48.652;9.194;2023-01-09T07:02:42;10.80;;;5.93;;
69410;SDS011;56604;48.652;9.194;2023-01-09T07:05:07;2.23;;;1.50;;
69410;SDS011;56604;48.652;9.194;2023-01-09T07:07:35;7.23;;;1.47;;
69410;SDS011;56604;48.652;9.194;2023-01-09T07:10:00;4.40;;;3.00;;
69410;SDS011;56604;48.652;9.194;2023-01-09T07:12:25;0.60;;;0.60;;
69410;SDS011;56604;48.652;9.194;2023-01-09T07:14:51;1.07;;;0.80;;
69410;SDS011;56604;48.652;9.194;2023-01-09T07:17:16;2.60;;;0.77;;
69410;SDS011;56604;48.652;9.194;2023-01-09T07:19:41;6.10;;;0.60;;
69410;SDS011;56604;48.652;9.194;2023-01-09T07:22:07;2.00;;;0.70;;
69410;SDS011;56604;48.652;9.194;2023-01-09T07:24:32;0.60;;;0.60;;
69410;SDS011;56604;48.652;9.194;2023-01-09T07:26:58;1.80;;;0.80;;
69410;SDS011;56604;48.652;9.194;2023-01-09T07:29:23;2.43;;;0.73;;
69410;SDS011;56604;48.652;9.194;2023-01-09T07:31:48;0.90;;;0.60;;
69410;SDS011;56604;48.652;9.194;2023-01-09T07:34:14;6.17;;;0.80;;
69410;SDS011;56604;48.652;9.194;2023-01-09T07:36:39;1.53;;;0.70;;
69410;SDS011;56604;48.652;9.194;2023-01-09T07:39:04;1.50;;;1.40;;
69410;SDS011;56604;48.652;9.194;2023-01-09T07:41:30;1.50;;;0.93;;
69410;SDS011;56604;48.652;9.194;2023-01-09T07:43:55;1.37;;;1.37;;
69410;SDS011;56604;48.652;9.194;2023-01-09T07:46:21;0.73;;;0.73;;
69410;SDS011;56604;48.652;9.194;2023-01-09T07:48:47;5.17;;;1.50;;
69410;SDS011;56604;48.652;9.194;2023-01-09T07:51:12;4.77;;;4.37;;
69410;SDS011;56604;48.652;9.194;2023-01-09T07:53:37;7.13;;;5.70;;
69410;SDS011;56604;48.652;9.194;2023-01-09T07:56:03;2.13;;;1.90;;
69410;SDS011;56604;48.652;9.194;2023-01-09T07:58:28;0.77;;;0.77;;
69410;SDS011;56604;48.652;9.194;2023-01-09T08:00:54;1.27;;;0.83;;
69410;SDS011;56604;48.652;9.194;2023-01-09T08:03:19;4.43;;;0.60;;
69410;SDS011;56604;48.652;9.194;2023-01-09T08:05:44;1.63;;;0.80;;
69410;SDS011;56604;48.652;9.194;2023-01-09T08:08:10;0.70;;;0.70;;
69410;SDS011;56604;48.652;9.194;2023-01-09T08:10:35;0.60;;;0.60;;
69410;SDS011;56604;48.652;9.194;2023-01-09T08:13:01;2.23;;;0.60;;
69410;SDS011;56604;48.652;9.194;2023-01-09T08:15:26;1.30;;;0.73;;
69410;SDS011;56604;48.652;9.194;2023-01-09T08:17:51;5.30;;;1.23;;
69410;SDS011;56604;48.652;9.194;2023-01-09T08:20:17;1.03;;;0.80;;
69410;SDS011;56604;48.652;9.194;2023-01-09T08:22:45;1.13;;;0.90;;
69410;SDS011;56604;48.652;9.194;2023-01-09T08:25:16;3.43;;;0.90;;
69410;SDS011;56604;48.652;9.194;2023-01-09T08:27:42;0.80;;;0.80;;
69410;SDS011;56604;48.652;9.194;2023-01-09T08:30:07;1.33;;;0.60;;
69410;SDS011;56604;48.652;9.194;2023-01-09T08:32:34;0.60;;;0.60;;
69410;SDS011;56604;48.652;9.194;2023-01-09T08:34:59;2.67;;;0.77;;
69410;SDS011;56604;48.652;9.194;2023-01-09T08:37:25;8.43;;;0.90;;
69410;SDS011;56604;48.652;9.194;2023-01-09T08:39:50;1.23;;;1.00;;
69410;SDS011;56604;48.652;9.194;2023-01-09T08:42:17;2.50;;;0.90;;
69410;SDS011;56604;48.652;9.194;2023-01-09T08:45:00;4.30;;;1.03;;
69410;SDS011;56604;48.652;9.194;2023-01-09T08:47:44;1.17;;;0.60;;
69410;SDS011;56604;48.652;9.194;2023-01-09T08:50:10;1.70;;;0.73;;
69410;SDS011;56604;48.652;9.194;2023-01-09T08:52:36;3.40;;;0.97;;
69410;SDS011;56604;48.652;9.194;2023-01-09T08:55:01;5.27;;;1.03;;
69410;SDS011;56604;48.652;9.194;2023-01-09T08:57:26;1.03;;;0.70;;
69410;SDS011;56604;48.652;9.194;2023-01-09T08:59:52;1.63;;;0.80;;
69410;SDS011;56604;48.652;9.194;2023-01-09T09:02:17;3.97;;;0.70;;
69410;SDS011;56604;48.652;9.194;2023-01-09T09:04:43;1.03;;;0.60;;
69410;SDS011;56604;48.652;9.194;2023-01-09T09:07:08;0.97;;;0.90;;
69410;SDS011;56604;48.652;9.194;2023-01-09T09:09:34;3.50;;;1.43;;
69410;SDS011;56604;48.652;9.194;2023-01-09T09:12:00;0.63;;;0.63;;
69410;SDS011;56604;48.652;9.194;2023-01-09T09:14:25;1.30;;;1.20;;
69410;SDS011;56604;48.652;9.194;2023-01-09T09:17:09;2.30;;;0.87;;
69410;SDS011;56604;48.652;9.194;2023-01-09T09:19:34;2.40;;;1.10;;
69410;SDS011;56604;48.652;9.194;2023-01-09T09:22:01;1.13;;;0.73;;
69410;SDS011;56604;48.652;9.194;2023-01-09T09:24:26;1.83;;;0.70;;
69410;SDS011;56604;48.652;9.194;2023-01-09T09:26:51;0.63;;;0.63;;
69410;SDS011;56604;48.652;9.194;2023-01-09T09:29:17;4.33;;;0.80;;
69410;SDS011;56604;48.652;9.194;2023-01-09T09:31:42;1.43;;;1.03;;
69410;SDS011;56604;48.652;9.194;2023-01-09T09:34:07;2.40;;;1.03;;
69410;SDS011;56604;48.652;9.194;2023-01-09T09:36:34;2.00;;;0.80;;
69410;SDS011;56604;48.652;9.194;2023-01-09T09:38:59;7.53;;;0.80;;
69410;SDS011;56604;48.652;9.194;2023-01-09T09:56:08;1.20;;;1.00;;
69410;SDS011;56604;48.652;9.194;2023-01-09T09:58:40;1.13;;;0.80;;
69410;SDS011;56604;48.652;9.194;2023-01-09T10:01:11;8.40;;;1.00;;
69410;SDS011;56604;48.652;9.194;2023-01-09T10:06:16;8.87;;;1.13;;
69410;SDS011;56604;48.652;9.194;2023-01-09T10:11:22;3.87;;;1.10;;
69410;SDS011;56604;48.652;9.194;2023-01-09T10:13:55;4.20;;;1.17;;
69410;SDS011;56604;48.652;9.194;2023-01-09T10:16:35;4.80;;;1.40;;
69410;SDS011;56604;48.652;9.194;2023-01-09T10:26:57;4.30;;;0.90;;
69410;SDS011;56604;48.652;9.194;2023-01-09T10:29:35;2.63;;;1.03;;
69410;SDS011;56604;48.652;9.194;2023-01-09T10:32:18;1.73;;;0.90;;
69410;SDS011;56604;48.652;9.194;2023-01-09T10:37:30;2.87;;;1.00;;
69410;SDS011;56604;48.652;9.194;2023-01-09T10:40:17;3.30;;;1.07;;
69410;SDS011;56604;48.652;9.194;2023-01-09T10:42:51;9.30;;;1.00;;
69410;SDS011;56604;48.652;9.194;2023-01-09T10:45:33;1.23;;;0.77;;
69410;SDS011;56604;48.652;9.194;2023-01-09T10:48:05;3.43;;;0.80;;
69410;SDS011;56604;48.652;9.194;2023-01-09T10:50:40;6.00;;;0.90;;
69410;SDS011;56604;48.652;9.194;2023-01-09T10:53:20;0.90;;;0.90;;
69410;SDS011;56604;48.652;9.194;2023-01-09T10:55:47;3.30;;;1.07;;
69410;SDS011;56604;48.652;9.194;2023-01-09T10:58:18;6.07;;;1.30;;
69410;SDS011;56604;48.652;9.194;2023-01-09T11:00:45;3.97;;;0.97;;
69410;SDS011;56604;48.652;9.194;2023-01-09T11:03:12;3.00;;;0.87;;
69410;SDS011;56604;48.652;9.194;2023-01-09T11:05:39;1.67;;;1.00;;
69410;SDS011;56604;48.652;9.194;2023-01-09T11:13:19;0.80;;;0.70;;
69410;SDS011;56604;48.652;9.194;2023-01-09T11:18:48;3.70;;;1.13;;
69410;SDS011;56604;48.652;9.194;2023-01-09T11:21:33;7.40;;;1.10;;
69410;SDS011;56604;48.652;9.194;2023-01-09T11:26:45;3.40;;;1.40;;
69410;SDS011;56604;48.652;9.194;2023-01-09T11:29:13;4.43;;;1.13;;
69410;SDS011;56604;48.652;9.194;2023-01-09T11:31:40;2.53;;;1.00;;
69410;SDS011;56604;48.652;9.194;2023-01-09T11:34:17;5.70;;;1.37;;
69410;SDS011;56604;48.652;9.194;2023-01-09T11:36:45;8.20;;;1.10;;
69410;SDS011;56604;48.652;9.194;2023-01-09T11:41:58;4.73;;;1.10;;
69410;SDS011;56604;48.652;9.194;2023-01-09T11:44:26;3.13;;;1.00;;
69410;SDS011;56604;48.652;9.194;2023-01-09T11:46:54;1.50;;;1.00;;
69410;SDS011;56604;48.652;9.194;2023-01-09T11:49:23;3.90;;;0.97;;
69410;SDS011;56604;48.652;9.194;2023-01-09T11:54:40;3.90;;;1.57;;
69410;SDS011;56604;48.652;9.194;2023-01-09T11:57:15;15.03;;;1.13;;
69410;SDS011;56604;48.652;9.194;2023-01-09T11:59:40;3.93;;;1.00;;
69410;SDS011;56604;48.652;9.194;2023-01-09T12:07:51;6.53;;;1.50;;
69410;SDS011;56604;48.652;9.194;2023-01-09T12:18:20;1.73;;;1.10;;
69410;SDS011;56604;48.652;9.194;2023-01-09T12:26:20;1.10;;;1.00;;
69410;SDS011;56604;48.652;9.194;2023-01-09T12:51:36;5.43;;;1.30;;
69410;SDS011;56604;48.652;9.194;2023-01-09T12:56:48;3.23;;;1.07;;
69410;SDS011;56604;48.652;9.194;2023-01-09T13:01:57;0.87;;;0.87;;
69410;SDS011;56604;48.652;9.194;2023-01-09T13:04:33;3.13;;;0.90;;
69410;SDS011;56604;48.652;9.194;2023-01-09T13:07:04;7.07;;;1.30;;
69410;SDS011;56604;48.652;9.194;2023-01-09T13:09:46;4.30;;;1.50;;
69410;SDS011;56604;48.652;9.194;2023-01-09T13:12:16;0.80;;;0.70;;
69410;SDS011;56604;48.652;9.194;2023-01-09T13:14:56;5.30;;;0.90;;
69410;SDS011;56604;48.652;9.194;2023-01-09T13:19:54;2.00;;;0.70;;
69410;SDS011;56604;48.652;9.194;2023-01-09T13:22:19;0.50;;;0.50;;
69410;SDS011;56604;48.652;9.194;2023-01-09T13:24:57;3.50;;;0.80;;
69410;SDS011;56604;48.652;9.194;2023-01-09T13:27:33;4.23;;;0.70;;
69410;SDS011;56604;48.652;9.194;2023-01-09T13:33:17;0.60;;;0.50;;
69410;SDS011;56604;48.652;9.194;2023-01-09T13:35:49;0.73;;;0.73;;
69410;SDS011;56604;48.652;9.194;2023-01-09T13:38:17;0.60;;;0.60;;
69410;SDS011;56604;48.652;9.194;2023-01-09T13:40:45;1.30;;;0.70;;
69410;SDS011;56604;48.652;9.194;2023-01-09T13:43:11;1.07;;;0.60;;
69410;SDS011;56604;48.652;9.194;2023-01-09T13:45:38;0.50;;;0.50;;
69410;SDS011;56604;48.652;9.194;2023-01-09T13:50:43;0.73;;;0.73;;
69410;SDS011;56604;48.652;9.194;2023-01-09T13:58:25;0.87;;;0.50;;
69410;SDS011;56604;48.652;9.194;2023-01-09T14:00:56;1.90;;;0.50;;
69410;SDS011;56604;48.652;9.194;2023-01-09T14:03:25;0.50;;;0.50;;
69410;SDS011;56604;48.652;9.194;2023-01-09T14:08:27;0.50;;;0.50;;
69410;SDS011;56604;48.652;9.194;2023-01-09T14:11:00;0.70;;;0.70;;
69410;SDS011;56604;48.652;9.194;2023-01-09T14:13:51;1.90;;;0.73;;
69410;SDS011;56604;48.652;9.194;2023-01-09T14:16:18;0.70;;;0.60;;
69410;SDS011;56604;48.652;9.194;2023-01-09T14:21:41;0.60;;;0.60;;
69410;SDS011;56604;48.652;9.194;2023-01-09T14:24:09;0.60;;;0.60;;
69410;SDS011;56604;48.652;9.194;2023-01-09T14:26:44;0.70;;;0.70;;
69410;SDS011;56604;48.652;9.194;2023-01-09T14:31:55;0.97;;;0.60;;
69410;SDS011;56604;48.652;9.194;2023-01-09T14:34:47;1.97;;;0.57;;
69410;SDS011;56604;48.652;9.194;2023-01-09T14:37:16;0.97;;;0.90;;
69410;SDS011;56604;48.652;9.194;2023-01-09T14:39:42;1.07;;;0.97;;
69410;SDS011;56604;48.652;9.194;2023-01-09T14:42:10;1.00;;;0.90;;
69410;SDS011;56604;48.652;9.194;2023-01-09T14:50:31;1.33;;;0.40;;
69410;SDS011;56604;48.652;9.194;2023-01-09T14:53:15;0.50;;;0.50;;
69410;SDS011;56604;48.652;9.194;2023-01-09T14:58:23;0.70;;;0.60;;
69410;SDS011;56604;48.652;9.194;2023-01-09T15:03:52;0.87;;;0.50;;
69410;SDS011;56604;48.652;9.194;2023-01-09T15:06:27;4.47;;;0.90;;
69410;SDS011;56604;48.652;9.194;2023-01-09T15:11:26;0.50;;;0.50;;
69410;SDS011;56604;48.652;9.194;2023-01-09T15:13:53;0.60;;;0.60;;
69410;SDS011;56604;48.652;9.194;2023-01-09T15:16:21;0.67;;;0.67;;
69410;SDS011;56604;48.652;9.194;2023-01-09T15:18:51;0.60;;;0.60;;
69410;SDS011;56604;48.652;9.194;2023-01-09T15:21:23;0.70;;;0.60;;
69410;SDS011;56604;48.652;9.194;2023-01-09T15:23:50;0.60;;;0.60;;
69410;SDS011;56604;48.652;9.194;2023-01-09T15:26:23;1.27;;;0.73;;
69410;SDS011;56604;48.652;9.194;2023-01-09T15:28:51;0.60;;;0.60;;
69410;SDS011;56604;48.652;9.194;2023-01-09T15:31:19;1.27;;;0.60;;
69410;SDS011;56604;48.652;9.194;2023-01-09T15:33:48;0.80;;;0.80;;
69410;SDS011;56604;48.652;9.194;2023-01-09T15:36:16;0.80;;;0.70;;
69410;SDS011;56604;48.652;9.194;2023-01-09T15:38:44;0.70;;;0.70;;
69410;SDS011;56604;48.652;9.194;2023-01-09T15:41:14;0.70;;;0.70;;
69410;SDS011;56604;48.652;9.194;2023-01-09T15:44:02;0.90;;;0.60;;
69410;SDS011;56604;48.652;9.194;2023-01-09T15:46:28;2.13;;;1.03;;
69410;SDS011;56604;48.652;9.194;2023-01-09T15:48:53;0.57;;;0.57;;
69410;SDS011;56604;48.652;9.194;2023-01-09T15:51:19;0.80;;;0.80;;
69410;SDS011;56604;48.652;9.194;2023-01-09T15:53:45;22.17;;;0.70;;
69410;SDS011;56604;48.652;9.194;2023-01-09T15:56:16;0.70;;;0.70;;
69410;SDS011;56604;48.652;9.194;2023-01-09T15:58:44;3.13;;;0.80;;
69410;SDS011;56604;48.652;9.194;2023-01-09T16:01:32;2.90;;;0.70;;
69410;SDS011;56604;48.652;9.194;2023-01-09T16:06:33;0.60;;;0.60;;
69410;SDS011;56604;48.652;9.194;2023-01-09T16:09:01;10.70;;;0.83;;
69410;SDS011;56604;48.652;9.194;2023-01-09T16:11:29;3.23;;;0.93;;
69410;SDS011;56604;48.652;9.194;2023-01-09T16:13:58;0.83;;;0.80;;
69410;SDS011;56604;48.652;9.194;2023-01-09T16:16:47;4.10;;;0.90;;
69410;SDS011;56604;48.652;9.194;2023-01-09T16:19:27;0.63;;;0.63;;
69410;SDS011;56604;48.652;9.194;2023-01-09T16:22:14;2.97;;;0.80;;
69410;SDS011;56604;48.652;9.194;2023-01-09T16:24:45;4.20;;;2.93;;
69410;SDS011;56604;48.652;9.194;2023-01-09T16:29:44;11.67;;;3.43;;
69410;SDS011;56604;48.652;9.194;2023-01-09T16:32:17;2.17;;;2.07;;
69410;SDS011;56604;48.652;9.194;2023-01-09T16:34:44;8.23;;;4.90;;
69410;SDS011;56604;48.652;9.194;2023-01-09T16:37:14;9.50;;;5.93;;
69410;SDS011;56604;48.652;9.194;2023-01-09T16:39:40;3.83;;;3.00;;
69410;SDS011;56604;48.652;9.194;2023-01-09T16:42:07;14.20;;;8.00;;
69410;SDS011;56604;48.652;9.194;2023-01-09T16:44:51;5.90;;;3.70;;
69410;SDS011;56604;48.652;9.194;2023-01-09T16:47:16;3.90;;;3.60;;
69410;SDS011;56604;48.652;9.194;2023-01-09T16:49:42;1.90;;;1.80;;
69410;SDS011;56604;48.652;9.194;2023-01-09T16:52:13;1.60;;;1.27;;
69410;SDS011;56604;48.652;9.194;2023-01-09T16:54:40;1.30;;;1.30;;
69410;SDS011;56604;48.652;9.194;2023-01-09T16:57:07;2.70;;;2.30;;
69410;SDS011;56604;48.652;9.194;2023-01-09T16:59:35;1.90;;;1.20;;
69410;SDS011;56604;48.652;9.194;2023-01-09T17:02:00;1.70;;;1.60;;
69410;SDS011;56604;48.652;9.194;2023-01-09T17:04:25;1.60;;;1.50;;
69410;SDS011;56604;48.652;9.194;2023-01-09T17:06:52;2.20;;;1.33;;
69410;SDS011;56604;48.652;9.194;2023-01-09T17:09:18;2.83;;;1.13;;
69410;SDS011;56604;48.652;9.194;2023-01-09T17:11:46;3.00;;;2.67;;
69410;SDS011;56604;48.652;9.194;2023-01-09T17:14:12;9.97;;;5.57;;
69410;SDS011;56604;48.652;9.194;2023-01-09T17:16:38;7.10;;;4.17;;
69410;SDS011;56604;48.652;9.194;2023-01-09T17:19:09;5.43;;;3.80;;
69410;SDS011;56604;48.652;9.194;2023-01-09T17:21:40;2.70;;;2.13;;
69410;SDS011;56604;48.652;9.194;2023-01-09T17:24:06;1.70;;;1.60;;
69410;SDS011;56604;48.652;9.194;2023-01-09T17:26:50;1.40;;;1.40;;
69410;SDS011;56604;48.652;9.194;2023-01-09T17:29:34;4.13;;;2.60;;
69410;SDS011;56604;48.652;9.194;2023-01-09T17:32:00;1.23;;;1.23;;
69410;SDS011;56604;48.652;9.194;2023-01-09T17:34:26;0.70;;;0.70;;